sensor_id;sensor_type;location;lat;lon;timestamp;temperature;humidity
8103;DHT22;4094;49.948;11.574;2022-12-18T00:00:27;-5.20;56.60
8103;DHT22;4094;49.948;11.574;2022-12-18T00:02:56;-5.20;56.70
8103;DHT22;4094;49.948;11.574;2022-12-18T00:05:25;-5.20;56.70
8103;DHT22;4094;49.948;11.574;2022-12-18T00:07:56;-5.10;56.70
8103;DHT22;4094;49.948;11.574;2022-12-18T00:10:25;-5.20;56.70
8103;DHT22;4094;49.948;11.574;2022-12-18T00:12:54;-5.20;56.80
8103;DHT22;4094;49.948;11.574;2022-12-18T00:15:23;-5.20;56.90
8103;DHT22;4094;49.948;11.574;2022-12-18T00:17:53;-5.20;57.00
8103;DHT22;4094;49.948;11.574;2022-12-18T00:20:22;-5.20;57.10
8103;DHT22;4094;49.948;11.574;2022-12-18T00:22:53;-5.20;57.20
8103;DHT22;4094;49.948;11.574;2022-12-18T00:25:24;-5.20;57.20
8103;DHT22;4094;49.948;11.574;2022-12-18T00:27:53;-5.20;57.20
8103;DHT22;4094;49.948;11.574;2022-12-18T00:30:22;-5.20;57.00
8103;DHT22;4094;49.948;11.574;2022-12-18T00:32:52;-5.20;56.70
8103;DHT22;4094;49.948;11.574;2022-12-18T00:35:21;-5.20;56.50
8103;DHT22;4094;49.948;11.574;2022-12-18T00:37:50;-5.20;56.30
8103;DHT22;4094;49.948;11.574;2022-12-18T00:40:20;-5.20;56.10
8103;DHT22;4094;49.948;11.574;2022-12-18T00:42:50;-5.30;56.30
8103;DHT22;4094;49.948;11.574;2022-12-18T00:45:25;-5.30;56.10
8103;DHT22;4094;49.948;11.574;2022-12-18T00:47:55;-5.40;56.00
8103;DHT22;4094;49.948;11.574;2022-12-18T00:50:25;-5.40;56.00
8103;DHT22;4094;49.948;11.574;2022-12-18T00:52:54;-5.50;55.90
8103;DHT22;4094;49.948;11.574;2022-12-18T00:55:23;-5.50;56.00
8103;DHT22;4094;49.948;11.574;2022-12-18T00:57:54;-5.50;56.00
8103;DHT22;4094;49.948;11.574;2022-12-18T01:00:23;-5.60;56.00
8103;DHT22;4094;49.948;11.574;2022-12-18T01:02:53;-5.60;56.20
8103;DHT22;4094;49.948;11.574;2022-12-18T01:05:22;-5.60;56.20
8103;DHT22;4094;49.948;11.574;2022-12-18T01:07:52;-5.60;56.30
8103;DHT22;4094;49.948;11.574;2022-12-18T01:10:22;-5.60;56.40
8103;DHT22;4094;49.948;11.574;2022-12-18T01:12:53;-5.60;56.70
8103;DHT22;4094;49.948;11.574;2022-12-18T01:15:22;-5.60;56.80
8103;DHT22;4094;49.948;11.574;2022-12-18T01:17:52;-5.50;56.80
8103;DHT22;4094;49.948;11.574;2022-12-18T01:20:21;-5.50;56.80
8103;DHT22;4094;49.948;11.574;2022-12-18T01:22:51;-5.50;56.80
8103;DHT22;4094;49.948;11.574;2022-12-18T01:25:20;-5.50;56.80
8103;DHT22;4094;49.948;11.574;2022-12-18T01:27:51;-5.50;56.70
8103;DHT22;4094;49.948;11.574;2022-12-18T01:30:21;-5.50;56.60
8103;DHT22;4094;49.948;11.574;2022-12-18T01:32:50;-5.40;56.60
8103;DHT22;4094;49.948;11.574;2022-12-18T01:35:19;-5.40;56.40
8103;DHT22;4094;49.948;11.574;2022-12-18T01:37:48;-5.50;56.30
8103;DHT22;4094;49.948;11.574;2022-12-18T01:40:20;-5.50;56.30
8103;DHT22;4094;49.948;11.574;2022-12-18T01:42:52;-5.50;56.40
8103;DHT22;4094;49.948;11.574;2022-12-18T01:45:25;-5.50;56.40
8103;DHT22;4094;49.948;11.574;2022-12-18T01:47:56;-5.50;56.30
8103;DHT22;4094;49.948;11.574;2022-12-18T01:50:31;-5.50;56.20
8103;DHT22;4094;49.948;11.574;2022-12-18T01:53:05;-5.50;56.40
8103;DHT22;4094;49.948;11.574;2022-12-18T01:55:39;-5.50;56.40
8103;DHT22;4094;49.948;11.574;2022-12-18T01:58:14;-5.50;56.60
8103;DHT22;4094;49.948;11.574;2022-12-18T02:00:45;-5.50;56.70
8103;DHT22;4094;49.948;11.574;2022-12-18T02:03:15;-5.50;56.80
8103;DHT22;4094;49.948;11.574;2022-12-18T02:05:48;-5.50;56.70
8103;DHT22;4094;49.948;11.574;2022-12-18T02:08:25;-5.40;56.80
8103;DHT22;4094;49.948;11.574;2022-12-18T02:11:04;-5.40;56.80
8103;DHT22;4094;49.948;11.574;2022-12-18T02:13:41;-5.40;56.80
8103;DHT22;4094;49.948;11.574;2022-12-18T02:16:20;-5.40;56.90
8103;DHT22;4094;49.948;11.574;2022-12-18T02:18:56;-5.40;56.90
8103;DHT22;4094;49.948;11.574;2022-12-18T02:21:32;-5.40;56.80
8103;DHT22;4094;49.948;11.574;2022-12-18T02:24:17;-5.40;56.90
8103;DHT22;4094;49.948;11.574;2022-12-18T02:26:49;-5.40;57.00
8103;DHT22;4094;49.948;11.574;2022-12-18T02:29:25;-5.40;56.90
8103;DHT22;4094;49.948;11.574;2022-12-18T02:31:58;-5.40;57.00
8103;DHT22;4094;49.948;11.574;2022-12-18T02:34:31;-5.30;57.10
8103;DHT22;4094;49.948;11.574;2022-12-18T02:37:05;-5.40;57.10
8103;DHT22;4094;49.948;11.574;2022-12-18T02:39:39;-5.30;57.20
8103;DHT22;4094;49.948;11.574;2022-12-18T02:42:12;-5.30;57.70
8103;DHT22;4094;49.948;11.574;2022-12-18T02:44:43;-5.30;57.30
8103;DHT22;4094;49.948;11.574;2022-12-18T02:47:17;-5.30;57.30
8103;DHT22;4094;49.948;11.574;2022-12-18T02:49:55;-5.20;57.40
8103;DHT22;4094;49.948;11.574;2022-12-18T02:52:35;-5.30;57.60
8103;DHT22;4094;49.948;11.574;2022-12-18T02:55:18;-5.20;57.10
8103;DHT22;4094;49.948;11.574;2022-12-18T02:58:03;-5.20;57.10
8103;DHT22;4094;49.948;11.574;2022-12-18T03:00:40;-5.30;56.90
8103;DHT22;4094;49.948;11.574;2022-12-18T03:03:16;-5.30;56.90
8103;DHT22;4094;49.948;11.574;2022-12-18T03:05:53;-5.30;56.70
8103;DHT22;4094;49.948;11.574;2022-12-18T03:08:26;-5.30;56.70
8103;DHT22;4094;49.948;11.574;2022-12-18T03:11:02;-5.30;56.70
8103;DHT22;4094;49.948;11.574;2022-12-18T03:13:37;-5.30;56.70
8103;DHT22;4094;49.948;11.574;2022-12-18T03:16:13;-5.30;56.60
8103;DHT22;4094;49.948;11.574;2022-12-18T03:18:47;-5.30;56.60
8103;DHT22;4094;49.948;11.574;2022-12-18T03:21:20;-5.30;56.70
8103;DHT22;4094;49.948;11.574;2022-12-18T03:23:52;-5.40;56.80
8103;DHT22;4094;49.948;11.574;2022-12-18T03:26:26;-5.40;56.90
8103;DHT22;4094;49.948;11.574;2022-12-18T03:29:04;-5.40;56.80
8103;DHT22;4094;49.948;11.574;2022-12-18T03:31:38;-5.40;56.90
8103;DHT22;4094;49.948;11.574;2022-12-18T03:34:12;-5.40;56.80
8103;DHT22;4094;49.948;11.574;2022-12-18T03:36:46;-5.40;56.70
8103;DHT22;4094;49.948;11.574;2022-12-18T03:39:15;-5.40;56.60
8103;DHT22;4094;49.948;11.574;2022-12-18T03:41:58;-5.40;56.60
8103;DHT22;4094;49.948;11.574;2022-12-18T03:44:39;-5.50;56.70
8103;DHT22;4094;49.948;11.574;2022-12-18T03:47:15;-5.50;56.80
8103;DHT22;4094;49.948;11.574;2022-12-18T03:49:48;-5.50;56.70
8103;DHT22;4094;49.948;11.574;2022-12-18T03:52:25;-5.50;56.70
8103;DHT22;4094;49.948;11.574;2022-12-18T03:54:58;-5.50;56.80
8103;DHT22;4094;49.948;11.574;2022-12-18T03:57:31;-5.50;56.80
8103;DHT22;4094;49.948;11.574;2022-12-18T04:00:08;-5.50;56.70
8103;DHT22;4094;49.948;11.574;2022-12-18T04:02:45;-5.50;56.60
8103;DHT22;4094;49.948;11.574;2022-12-18T04:05:24;-5.50;56.40
8103;DHT22;4094;49.948;11.574;2022-12-18T04:07:56;-5.50;56.20
8103;DHT22;4094;49.948;11.574;2022-12-18T04:10:26;-5.60;56.00
8103;DHT22;4094;49.948;11.574;2022-12-18T04:12:58;-5.60;56.00
8103;DHT22;4094;49.948;11.574;2022-12-18T04:15:31;-5.60;56.00
8103;DHT22;4094;49.948;11.574;2022-12-18T04:18:03;-5.70;55.90
8103;DHT22;4094;49.948;11.574;2022-12-18T04:20:39;-5.70;55.90
8103;DHT22;4094;49.948;11.574;2022-12-18T04:23:09;-5.70;56.00
8103;DHT22;4094;49.948;11.574;2022-12-18T04:25:39;-5.70;56.00
8103;DHT22;4094;49.948;11.574;2022-12-18T04:28:12;-5.80;55.90
8103;DHT22;4094;49.948;11.574;2022-12-18T04:30:44;-5.80;55.90
8103;DHT22;4094;49.948;11.574;2022-12-18T04:33:20;-5.80;55.90
8103;DHT22;4094;49.948;11.574;2022-12-18T04:35:49;-5.80;55.80
8103;DHT22;4094;49.948;11.574;2022-12-18T04:38:18;-5.90;55.70
8103;DHT22;4094;49.948;11.574;2022-12-18T04:40:52;-5.90;55.90
8103;DHT22;4094;49.948;11.574;2022-12-18T04:43:26;-5.90;55.90
8103;DHT22;4094;49.948;11.574;2022-12-18T04:46:03;-5.90;55.90
8103;DHT22;4094;49.948;11.574;2022-12-18T04:48:33;-5.90;56.00
8103;DHT22;4094;49.948;11.574;2022-12-18T04:51:03;-6.00;56.00
8103;DHT22;4094;49.948;11.574;2022-12-18T04:53:32;-6.00;56.00
8103;DHT22;4094;49.948;11.574;2022-12-18T04:56:06;-6.00;56.00
8103;DHT22;4094;49.948;11.574;2022-12-18T04:58:37;-6.00;56.10
8103;DHT22;4094;49.948;11.574;2022-12-18T05:01:09;-6.00;56.20
8103;DHT22;4094;49.948;11.574;2022-12-18T05:03:38;-6.00;56.40
8103;DHT22;4094;49.948;11.574;2022-12-18T05:06:09;-6.00;56.50
8103;DHT22;4094;49.948;11.574;2022-12-18T05:08:38;-6.00;56.80
8103;DHT22;4094;49.948;11.574;2022-12-18T05:11:11;-6.00;56.90
8103;DHT22;4094;49.948;11.574;2022-12-18T05:13:42;-5.90;57.10
8103;DHT22;4094;49.948;11.574;2022-12-18T05:16:14;-5.90;57.20
8103;DHT22;4094;49.948;11.574;2022-12-18T05:18:43;-5.90;57.20
8103;DHT22;4094;49.948;11.574;2022-12-18T05:21:16;-5.80;57.30
8103;DHT22;4094;49.948;11.574;2022-12-18T05:23:45;-5.80;57.30
8103;DHT22;4094;49.948;11.574;2022-12-18T05:26:16;-5.80;57.30
8103;DHT22;4094;49.948;11.574;2022-12-18T05:28:46;-5.70;57.40
8103;DHT22;4094;49.948;11.574;2022-12-18T05:31:16;-5.70;57.50
8103;DHT22;4094;49.948;11.574;2022-12-18T05:33:45;-5.70;57.50
8103;DHT22;4094;49.948;11.574;2022-12-18T05:36:17;-5.70;57.50
8103;DHT22;4094;49.948;11.574;2022-12-18T05:38:46;-5.60;57.50
8103;DHT22;4094;49.948;11.574;2022-12-18T05:41:15;-5.60;57.50
8103;DHT22;4094;49.948;11.574;2022-12-18T05:43:44;-5.60;57.60
8103;DHT22;4094;49.948;11.574;2022-12-18T05:46:16;-5.60;57.60
8103;DHT22;4094;49.948;11.574;2022-12-18T05:48:46;-5.50;57.70
8103;DHT22;4094;49.948;11.574;2022-12-18T05:51:18;-5.60;57.60
8103;DHT22;4094;49.948;11.574;2022-12-18T05:53:47;-5.50;57.70
8103;DHT22;4094;49.948;11.574;2022-12-18T05:56:20;-5.60;57.60
8103;DHT22;4094;49.948;11.574;2022-12-18T05:58:51;-5.50;57.80
8103;DHT22;4094;49.948;11.574;2022-12-18T06:01:24;-5.50;57.80
8103;DHT22;4094;49.948;11.574;2022-12-18T06:03:55;-5.50;57.70
8103;DHT22;4094;49.948;11.574;2022-12-18T06:06:26;-5.50;57.50
8103;DHT22;4094;49.948;11.574;2022-12-18T06:08:56;-5.50;57.60
8103;DHT22;4094;49.948;11.574;2022-12-18T06:11:26;-5.50;57.60
8103;DHT22;4094;49.948;11.574;2022-12-18T06:13:56;-5.50;57.60
8103;DHT22;4094;49.948;11.574;2022-12-18T06:16:29;-5.50;57.40
8103;DHT22;4094;49.948;11.574;2022-12-18T06:19:00;-5.50;57.40
8103;DHT22;4094;49.948;11.574;2022-12-18T06:21:31;-5.50;57.60
8103;DHT22;4094;49.948;11.574;2022-12-18T06:24:01;-5.50;57.50
8103;DHT22;4094;49.948;11.574;2022-12-18T06:26:31;-5.40;57.40
8103;DHT22;4094;49.948;11.574;2022-12-18T06:29:00;-5.50;57.30
8103;DHT22;4094;49.948;11.574;2022-12-18T06:31:30;-5.50;57.30
8103;DHT22;4094;49.948;11.574;2022-12-18T06:34:02;-5.50;57.30
8103;DHT22;4094;49.948;11.574;2022-12-18T06:36:32;-5.50;57.50
8103;DHT22;4094;49.948;11.574;2022-12-18T06:39:01;-5.50;57.80
8103;DHT22;4094;49.948;11.574;2022-12-18T06:41:31;-5.50;57.90
8103;DHT22;4094;49.948;11.574;2022-12-18T06:44:00;-5.40;58.00
8103;DHT22;4094;49.948;11.574;2022-12-18T06:46:30;-5.40;58.00
8103;DHT22;4094;49.948;11.574;2022-12-18T06:49:00;-5.40;57.90
8103;DHT22;4094;49.948;11.574;2022-12-18T06:51:29;-5.40;57.90
8103;DHT22;4094;49.948;11.574;2022-12-18T06:53:58;-5.40;57.90
8103;DHT22;4094;49.948;11.574;2022-12-18T06:56:30;-5.40;57.80
8103;DHT22;4094;49.948;11.574;2022-12-18T06:58:59;-5.40;57.80
8103;DHT22;4094;49.948;11.574;2022-12-18T07:01:30;-5.40;57.80
8103;DHT22;4094;49.948;11.574;2022-12-18T07:03:59;-5.40;57.80
8103;DHT22;4094;49.948;11.574;2022-12-18T07:06:30;-5.40;57.90
8103;DHT22;4094;49.948;11.574;2022-12-18T07:08:59;-5.30;57.90
8103;DHT22;4094;49.948;11.574;2022-12-18T07:11:28;-5.40;57.80
8103;DHT22;4094;49.948;11.574;2022-12-18T07:13:57;-5.40;57.70
8103;DHT22;4094;49.948;11.574;2022-12-18T07:16:30;-5.30;57.90
8103;DHT22;4094;49.948;11.574;2022-12-18T07:19:00;-5.30;58.20
8103;DHT22;4094;49.948;11.574;2022-12-18T07:21:29;-5.30;58.40
8103;DHT22;4094;49.948;11.574;2022-12-18T07:23:58;-5.30;58.60
8103;DHT22;4094;49.948;11.574;2022-12-18T07:26:28;-5.30;58.80
8103;DHT22;4094;49.948;11.574;2022-12-18T07:28:57;-5.30;59.10
8103;DHT22;4094;49.948;11.574;2022-12-18T07:31:28;-5.30;59.30
8103;DHT22;4094;49.948;11.574;2022-12-18T07:33:59;-5.20;59.30
8103;DHT22;4094;49.948;11.574;2022-12-18T07:36:28;-5.20;59.40
8103;DHT22;4094;49.948;11.574;2022-12-18T07:38:57;-5.20;59.30
8103;DHT22;4094;49.948;11.574;2022-12-18T07:41:26;-5.10;60.00
8103;DHT22;4094;49.948;11.574;2022-12-18T07:43:55;-5.10;59.30
8103;DHT22;4094;49.948;11.574;2022-12-18T07:46:24;-5.10;59.30
8103;DHT22;4094;49.948;11.574;2022-12-18T07:48:53;-5.10;59.40
8103;DHT22;4094;49.948;11.574;2022-12-18T07:51:24;-5.00;59.40
8103;DHT22;4094;49.948;11.574;2022-12-18T07:53:53;-5.00;59.30
8103;DHT22;4094;49.948;11.574;2022-12-18T07:56:22;-5.00;59.30
8103;DHT22;4094;49.948;11.574;2022-12-18T07:58:56;-5.00;59.40
8103;DHT22;4094;49.948;11.574;2022-12-18T08:01:25;-5.00;59.40
8103;DHT22;4094;49.948;11.574;2022-12-18T08:03:55;-4.90;59.50
8103;DHT22;4094;49.948;11.574;2022-12-18T08:06:26;-4.90;59.30
8103;DHT22;4094;49.948;11.574;2022-12-18T08:08:56;-4.80;59.50
8103;DHT22;4094;49.948;11.574;2022-12-18T08:11:26;-4.80;59.40
8103;DHT22;4094;49.948;11.574;2022-12-18T08:13:56;-4.80;59.40
8103;DHT22;4094;49.948;11.574;2022-12-18T08:16:26;-4.80;59.40
8103;DHT22;4094;49.948;11.574;2022-12-18T08:18:55;-4.80;59.20
8103;DHT22;4094;49.948;11.574;2022-12-18T08:21:27;-4.80;59.20
8103;DHT22;4094;49.948;11.574;2022-12-18T08:23:59;-4.80;59.50
8103;DHT22;4094;49.948;11.574;2022-12-18T08:26:29;-4.80;59.50
8103;DHT22;4094;49.948;11.574;2022-12-18T08:29:00;-4.80;59.50
8103;DHT22;4094;49.948;11.574;2022-12-18T08:31:30;-4.70;59.50
8103;DHT22;4094;49.948;11.574;2022-12-18T08:34:00;-4.70;59.50
8103;DHT22;4094;49.948;11.574;2022-12-18T08:36:31;-4.70;59.40
8103;DHT22;4094;49.948;11.574;2022-12-18T08:39:05;-4.70;59.40
8103;DHT22;4094;49.948;11.574;2022-12-18T08:41:35;-4.70;59.40
8103;DHT22;4094;49.948;11.574;2022-12-18T08:44:04;-4.70;59.40
8103;DHT22;4094;49.948;11.574;2022-12-18T08:47:08;-4.60;59.60
8103;DHT22;4094;49.948;11.574;2022-12-18T08:49:38;-4.60;59.50
8103;DHT22;4094;49.948;11.574;2022-12-18T08:52:08;-4.60;59.50
8103;DHT22;4094;49.948;11.574;2022-12-18T08:54:40;-4.60;59.60
8103;DHT22;4094;49.948;11.574;2022-12-18T08:57:10;-4.50;59.60
8103;DHT22;4094;49.948;11.574;2022-12-18T08:59:40;-4.50;59.80
8103;DHT22;4094;49.948;11.574;2022-12-18T09:02:10;-4.40;59.90
8103;DHT22;4094;49.948;11.574;2022-12-18T09:04:40;-4.40;59.90
8103;DHT22;4094;49.948;11.574;2022-12-18T09:07:10;-4.30;59.70
8103;DHT22;4094;49.948;11.574;2022-12-18T09:09:39;-4.20;59.70
8103;DHT22;4094;49.948;11.574;2022-12-18T09:12:09;-4.20;59.70
8103;DHT22;4094;49.948;11.574;2022-12-18T09:14:38;-4.10;59.70
8103;DHT22;4094;49.948;11.574;2022-12-18T09:17:07;-4.00;60.10
8103;DHT22;4094;49.948;11.574;2022-12-18T09:19:37;-3.80;60.60
8103;DHT22;4094;49.948;11.574;2022-12-18T09:22:06;-3.40;61.20
8103;DHT22;4094;49.948;11.574;2022-12-18T09:24:36;-3.00;61.10
8103;DHT22;4094;49.948;11.574;2022-12-18T09:27:05;-2.50;61.10
8103;DHT22;4094;49.948;11.574;2022-12-18T09:29:35;-2.10;60.70
8103;DHT22;4094;49.948;11.574;2022-12-18T09:32:05;-1.60;60.10
8103;DHT22;4094;49.948;11.574;2022-12-18T09:34:34;-1.20;59.30
8103;DHT22;4094;49.948;11.574;2022-12-18T09:37:03;-0.80;58.90
8103;DHT22;4094;49.948;11.574;2022-12-18T09:39:33;-0.30;58.80
8103;DHT22;4094;49.948;11.574;2022-12-18T09:42:17;0.20;58.50
8103;DHT22;4094;49.948;11.574;2022-12-18T09:44:50;0.70;57.30
8103;DHT22;4094;49.948;11.574;2022-12-18T09:47:24;1.10;56.60
8103;DHT22;4094;49.948;11.574;2022-12-18T09:49:58;1.50;56.00
8103;DHT22;4094;49.948;11.574;2022-12-18T09:52:32;1.80;55.40
8103;DHT22;4094;49.948;11.574;2022-12-18T09:55:09;2.20;55.10
8103;DHT22;4094;49.948;11.574;2022-12-18T09:57:47;2.40;54.00
8103;DHT22;4094;49.948;11.574;2022-12-18T10:00:20;2.60;53.20
8103;DHT22;4094;49.948;11.574;2022-12-18T10:02:50;2.60;52.90
8103;DHT22;4094;49.948;11.574;2022-12-18T10:05:30;2.60;52.90
8103;DHT22;4094;49.948;11.574;2022-12-18T10:08:07;2.60;52.40
8103;DHT22;4094;49.948;11.574;2022-12-18T10:10:41;2.50;52.50
8103;DHT22;4094;49.948;11.574;2022-12-18T10:13:22;2.40;52.20
8103;DHT22;4094;49.948;11.574;2022-12-18T10:16:00;2.30;52.20
8103;DHT22;4094;49.948;11.574;2022-12-18T10:18:44;2.30;52.80
8103;DHT22;4094;49.948;11.574;2022-12-18T10:21:24;2.50;53.30
8103;DHT22;4094;49.948;11.574;2022-12-18T10:24:02;2.70;53.70
8103;DHT22;4094;49.948;11.574;2022-12-18T10:26:37;3.10;53.10
8103;DHT22;4094;49.948;11.574;2022-12-18T10:29:10;3.40;53.00
8103;DHT22;4094;49.948;11.574;2022-12-18T10:31:40;3.70;52.60
8103;DHT22;4094;49.948;11.574;2022-12-18T10:34:11;3.90;51.90
8103;DHT22;4094;49.948;11.574;2022-12-18T10:36:43;4.10;51.60
8103;DHT22;4094;49.948;11.574;2022-12-18T10:39:15;4.40;51.50
8103;DHT22;4094;49.948;11.574;2022-12-18T10:41:45;4.50;51.40
8103;DHT22;4094;49.948;11.574;2022-12-18T10:44:19;4.60;50.60
8103;DHT22;4094;49.948;11.574;2022-12-18T10:46:50;4.70;50.20
8103;DHT22;4094;49.948;11.574;2022-12-18T10:49:23;4.70;49.80
8103;DHT22;4094;49.948;11.574;2022-12-18T10:52:07;4.70;49.40
8103;DHT22;4094;49.948;11.574;2022-12-18T10:54:45;4.60;49.50
8103;DHT22;4094;49.948;11.574;2022-12-18T10:57:16;4.60;49.90
8103;DHT22;4094;49.948;11.574;2022-12-18T10:59:54;4.60;50.20
8103;DHT22;4094;49.948;11.574;2022-12-18T11:02:27;4.70;50.10
8103;DHT22;4094;49.948;11.574;2022-12-18T11:05:23;5.00;50.70
8103;DHT22;4094;49.948;11.574;2022-12-18T11:07:53;5.40;50.30
8103;DHT22;4094;49.948;11.574;2022-12-18T11:10:28;5.80;50.20
8103;DHT22;4094;49.948;11.574;2022-12-18T11:13:15;6.20;49.70
8103;DHT22;4094;49.948;11.574;2022-12-18T11:15:48;6.70;49.10
8103;DHT22;4094;49.948;11.574;2022-12-18T11:18:20;7.10;48.80
8103;DHT22;4094;49.948;11.574;2022-12-18T11:20:53;7.50;48.80
8103;DHT22;4094;49.948;11.574;2022-12-18T11:23:26;8.10;48.40
8103;DHT22;4094;49.948;11.574;2022-12-18T11:25:57;8.50;47.10
8103;DHT22;4094;49.948;11.574;2022-12-18T11:28:39;8.90;46.30
8103;DHT22;4094;49.948;11.574;2022-12-18T11:31:18;9.30;45.70
8103;DHT22;4094;49.948;11.574;2022-12-18T11:33:54;9.70;45.70
8103;DHT22;4094;49.948;11.574;2022-12-18T11:36:46;10.10;45.20
8103;DHT22;4094;49.948;11.574;2022-12-18T11:39:20;10.60;44.70
8103;DHT22;4094;49.948;11.574;2022-12-18T11:41:53;10.90;43.70
8103;DHT22;4094;49.948;11.574;2022-12-18T11:44:48;11.20;43.20
8103;DHT22;4094;49.948;11.574;2022-12-18T11:47:26;11.50;42.50
8103;DHT22;4094;49.948;11.574;2022-12-18T11:50:12;11.80;42.30
8103;DHT22;4094;49.948;11.574;2022-12-18T11:52:43;12.00;41.80
8103;DHT22;4094;49.948;11.574;2022-12-18T11:55:27;12.20;41.00
8103;DHT22;4094;49.948;11.574;2022-12-18T11:58:04;12.30;39.90
8103;DHT22;4094;49.948;11.574;2022-12-18T12:00:44;12.30;40.20
8103;DHT22;4094;49.948;11.574;2022-12-18T12:03:27;12.30;39.90
8103;DHT22;4094;49.948;11.574;2022-12-18T12:06:10;12.20;39.60
8103;DHT22;4094;49.948;11.574;2022-12-18T12:08:52;11.90;39.30
8103;DHT22;4094;49.948;11.574;2022-12-18T12:11:28;11.50;39.30
8103;DHT22;4094;49.948;11.574;2022-12-18T12:14:14;11.10;39.70
8103;DHT22;4094;49.948;11.574;2022-12-18T12:16:48;10.70;39.90
8103;DHT22;4094;49.948;11.574;2022-12-18T12:19:32;10.20;40.10
8103;DHT22;4094;49.948;11.574;2022-12-18T12:22:08;9.60;40.20
8103;DHT22;4094;49.948;11.574;2022-12-18T12:24:50;9.00;40.60
8103;DHT22;4094;49.948;11.574;2022-12-18T12:27:30;8.40;41.30
8103;DHT22;4094;49.948;11.574;2022-12-18T12:30:07;7.90;41.80
8103;DHT22;4094;49.948;11.574;2022-12-18T12:32:48;7.40;42.50
8103;DHT22;4094;49.948;11.574;2022-12-18T12:35:29;6.90;43.00
8103;DHT22;4094;49.948;11.574;2022-12-18T12:38:07;6.50;43.60
8103;DHT22;4094;49.948;11.574;2022-12-18T12:40:41;6.00;44.10
8103;DHT22;4094;49.948;11.574;2022-12-18T12:43:35;5.60;44.50
8103;DHT22;4094;49.948;11.574;2022-12-18T12:46:11;5.20;45.10
8103;DHT22;4094;49.948;11.574;2022-12-18T12:48:44;4.80;45.60
8103;DHT22;4094;49.948;11.574;2022-12-18T12:51:19;4.50;46.10
8103;DHT22;4094;49.948;11.574;2022-12-18T12:53:50;4.10;47.30
8103;DHT22;4094;49.948;11.574;2022-12-18T12:56:21;3.80;47.20
8103;DHT22;4094;49.948;11.574;2022-12-18T12:58:59;3.50;47.70
8103;DHT22;4094;49.948;11.574;2022-12-18T13:01:35;3.20;48.10
8103;DHT22;4094;49.948;11.574;2022-12-18T13:04:15;3.00;48.70
8103;DHT22;4094;49.948;11.574;2022-12-18T13:06:56;2.80;49.10
8103;DHT22;4094;49.948;11.574;2022-12-18T13:09:31;2.60;49.60
8103;DHT22;4094;49.948;11.574;2022-12-18T13:12:21;2.50;49.90
8103;DHT22;4094;49.948;11.574;2022-12-18T13:15:20;2.40;50.20
8103;DHT22;4094;49.948;11.574;2022-12-18T13:18:03;2.30;50.50
8103;DHT22;4094;49.948;11.574;2022-12-18T13:20:34;2.20;50.70
8103;DHT22;4094;49.948;11.574;2022-12-18T13:25:59;2.10;50.90
8103;DHT22;4094;49.948;11.574;2022-12-18T13:28:51;2.00;51.30
8103;DHT22;4094;49.948;11.574;2022-12-18T13:34:44;1.70;51.80
8103;DHT22;4094;49.948;11.574;2022-12-18T13:37:39;1.60;51.70
8103;DHT22;4094;49.948;11.574;2022-12-18T13:43:35;1.40;52.50
8103;DHT22;4094;49.948;11.574;2022-12-18T13:46:22;1.30;52.70
8103;DHT22;4094;49.948;11.574;2022-12-18T13:48:57;1.20;52.90
8103;DHT22;4094;49.948;11.574;2022-12-18T13:51:28;1.20;52.90
8103;DHT22;4094;49.948;11.574;2022-12-18T13:54:00;1.20;53.10
8103;DHT22;4094;49.948;11.574;2022-12-18T13:56:32;1.10;53.20
8103;DHT22;4094;49.948;11.574;2022-12-18T13:59:15;1.00;53.30
8103;DHT22;4094;49.948;11.574;2022-12-18T14:02:15;1.00;53.70
8103;DHT22;4094;49.948;11.574;2022-12-18T14:04:46;1.00;53.80
8103;DHT22;4094;49.948;11.574;2022-12-18T14:07:18;0.90;53.90
8103;DHT22;4094;49.948;11.574;2022-12-18T14:09:52;0.80;53.90
8103;DHT22;4094;49.948;11.574;2022-12-18T14:12:35;0.80;54.10
8103;DHT22;4094;49.948;11.574;2022-12-18T14:15:30;0.70;54.30
8103;DHT22;4094;49.948;11.574;2022-12-18T14:18:13;0.60;54.40
8103;DHT22;4094;49.948;11.574;2022-12-18T14:20:47;0.50;54.50
8103;DHT22;4094;49.948;11.574;2022-12-18T14:23:29;0.40;54.70
8103;DHT22;4094;49.948;11.574;2022-12-18T14:25:58;0.30;55.00
8103;DHT22;4094;49.948;11.574;2022-12-18T14:28:32;0.30;55.00
8103;DHT22;4094;49.948;11.574;2022-12-18T14:31:04;0.20;55.10
8103;DHT22;4094;49.948;11.574;2022-12-18T14:33:34;0.20;55.30
8103;DHT22;4094;49.948;11.574;2022-12-18T14:36:04;0.20;55.30
8103;DHT22;4094;49.948;11.574;2022-12-18T14:38:35;0.20;55.30
8103;DHT22;4094;49.948;11.574;2022-12-18T14:41:06;0.20;55.30
8103;DHT22;4094;49.948;11.574;2022-12-18T14:43:39;0.20;55.40
8103;DHT22;4094;49.948;11.574;2022-12-18T14:46:27;0.20;55.40
8103;DHT22;4094;49.948;11.574;2022-12-18T14:49:02;0.20;55.60
8103;DHT22;4094;49.948;11.574;2022-12-18T14:51:33;0.20;55.40
8103;DHT22;4094;49.948;11.574;2022-12-18T14:54:05;0.20;55.50
8103;DHT22;4094;49.948;11.574;2022-12-18T14:56:37;0.20;55.70
8103;DHT22;4094;49.948;11.574;2022-12-18T14:59:14;0.10;55.90
8103;DHT22;4094;49.948;11.574;2022-12-18T15:01:58;0.10;55.80
8103;DHT22;4094;49.948;11.574;2022-12-18T15:04:31;0.10;55.90
8103;DHT22;4094;49.948;11.574;2022-12-18T15:07:05;0.10;55.80
8103;DHT22;4094;49.948;11.574;2022-12-18T15:09:37;0.10;56.00
8103;DHT22;4094;49.948;11.574;2022-12-18T15:12:23;0.00;55.80
8103;DHT22;4094;49.948;11.574;2022-12-18T15:14:54;0.00;56.10
8103;DHT22;4094;49.948;11.574;2022-12-18T15:17:25;0.00;55.80
8103;DHT22;4094;49.948;11.574;2022-12-18T15:20:01;0.00;56.00
8103;DHT22;4094;49.948;11.574;2022-12-18T15:22:34;0.00;56.20
8103;DHT22;4094;49.948;11.574;2022-12-18T15:25:24;-0.10;56.20
8103;DHT22;4094;49.948;11.574;2022-12-18T15:28:17;-0.10;56.30
8103;DHT22;4094;49.948;11.574;2022-12-18T15:31:20;-0.10;56.30
8103;DHT22;4094;49.948;11.574;2022-12-18T15:34:10;-0.10;56.50
8103;DHT22;4094;49.948;11.574;2022-12-18T15:36:41;-0.10;56.40
8103;DHT22;4094;49.948;11.574;2022-12-18T15:39:11;-0.10;56.30
8103;DHT22;4094;49.948;11.574;2022-12-18T15:41:42;-0.20;56.30
8103;DHT22;4094;49.948;11.574;2022-12-18T15:44:34;-0.20;56.40
8103;DHT22;4094;49.948;11.574;2022-12-18T15:47:09;-0.20;56.30
8103;DHT22;4094;49.948;11.574;2022-12-18T15:49:40;-0.20;56.50
8103;DHT22;4094;49.948;11.574;2022-12-18T15:52:12;-0.20;56.50
8103;DHT22;4094;49.948;11.574;2022-12-18T15:54:54;-0.20;56.50
8103;DHT22;4094;49.948;11.574;2022-12-18T15:57:41;-0.10;56.40
8103;DHT22;4094;49.948;11.574;2022-12-18T16:00:12;-0.10;56.40
8103;DHT22;4094;49.948;11.574;2022-12-18T16:02:42;-0.10;56.70
8103;DHT22;4094;49.948;11.574;2022-12-18T16:05:31;-0.20;56.50
8103;DHT22;4094;49.948;11.574;2022-12-18T16:08:00;-0.20;56.40
8103;DHT22;4094;49.948;11.574;2022-12-18T16:10:30;-0.20;56.50
8103;DHT22;4094;49.948;11.574;2022-12-18T16:12:59;-0.20;56.50
8103;DHT22;4094;49.948;11.574;2022-12-18T16:15:28;-0.20;56.50
8103;DHT22;4094;49.948;11.574;2022-12-18T16:17:58;-0.20;56.50
8103;DHT22;4094;49.948;11.574;2022-12-18T16:20:30;-0.20;56.60
8103;DHT22;4094;49.948;11.574;2022-12-18T16:23:00;-0.30;56.50
8103;DHT22;4094;49.948;11.574;2022-12-18T16:25:29;-0.30;56.60
8103;DHT22;4094;49.948;11.574;2022-12-18T16:27:59;-0.30;56.60
8103;DHT22;4094;49.948;11.574;2022-12-18T16:30:30;-0.30;56.70
8103;DHT22;4094;49.948;11.574;2022-12-18T16:33:06;-0.40;56.80
8103;DHT22;4094;49.948;11.574;2022-12-18T16:35:36;-0.40;56.80
8103;DHT22;4094;49.948;11.574;2022-12-18T16:38:06;-0.40;56.80
8103;DHT22;4094;49.948;11.574;2022-12-18T16:40:35;-0.50;56.80